Time;durP1;ratioP1;P1;durP2;ratioP2;P2;SDS_P1;SDS_P2;PMS_P1;PMS_P2;Temp;Humidity;BMP_temperature;BMP_pressure;BME280_temperature;BME280_humidity;BME280_pressure;Samples;Min_cycle;Max_cycle;Signal;HPM_P1;HPM_P2
2022/10/09 00:01:21;;;;;;;9.13;5.50;;;;;;;16.68;57.24;100064.19;4484884;31;34109;-65
2022/10/09 00:03:52;;;;;;;8.45;5.12;;;;;;;16.59;57.58;100060.50;4489561;31;33817;-65
2022/10/09 00:06:22;;;;;;;5.78;4.15;;;;;;;16.25;58.90;100062.84;4498745;31;33940;-66
2022/10/09 00:08:50;;;;;;;7.18;5.28;;;;;;;16.42;58.48;100062.09;4490472;31;34439;-65
2022/10/09 00:11:20;;;;;;;6.87;4.03;;;;;;;16.48;58.22;100066.09;4485712;31;33746;-66
2022/10/09 00:13:48;;;;;;;7.30;5.05;;;;;;;16.41;58.34;100059.56;4484975;31;34196;-66
2022/10/09 00:16:16;;;;;;;4.72;2.95;;;;;;;16.27;58.81;100058.97;4486426;31;32445;-65
2022/10/09 00:18:44;;;;;;;6.65;3.78;;;;;;;16.34;58.34;100056.59;4490118;31;34550;-67
2022/10/09 00:21:23;;;;;;;4.25;2.90;;;;;;;16.19;58.70;100055.31;4485533;31;34948;-67
2022/10/09 00:23:53;;;;;;;4.82;3.50;;;;;;;16.20;58.67;100049.75;4488968;31;33751;-67
2022/10/09 00:26:21;;;;;;;4.43;3.42;;;;;;;15.72;60.29;100056.00;4492648;31;32735;-67
2022/10/09 00:28:49;;;;;;;7.37;4.25;;;;;;;15.78;60.44;100052.75;4489443;31;33783;-68
2022/10/09 00:31:17;;;;;;;6.70;4.57;;;;;;;15.82;60.28;100048.75;4486802;31;34951;-68
2022/10/09 00:33:45;;;;;;;4.70;3.35;;;;;;;15.83;60.11;100045.09;4491869;31;34076;-67
2022/10/09 00:36:19;;;;;;;6.12;4.12;;;;;;;16.09;59.42;100043.69;4490755;31;34944;-68
2022/10/09 00:38:47;;;;;;;6.60;3.25;;;;;;;16.21;59.04;100042.50;4492515;31;32227;-68
2022/10/09 00:41:24;;;;;;;8.95;4.37;;;;;;;16.26;58.74;100040.25;4490144;31;32398;-68
2022/10/09 00:43:57;;;;;;;7.70;5.15;;;;;;;16.38;58.44;100041.78;4490608;31;34150;-67
2022/10/09 00:46:44;;;;;;;6.50;4.60;;;;;;;16.43;58.39;100042.19;4489944;31;33928;-68
2022/10/09 00:49:27;;;;;;;4.55;3.35;;;;;;;16.23;59.33;100040.53;4499972;31;33232;-68
2022/10/09 00:51:57;;;;;;;5.22;3.87;;;;;;;16.26;59.43;100027.56;4487927;31;33710;-68
2022/10/09 00:54:28;;;;;;;6.32;4.62;;;;;;;16.23;59.79;100027.88;4486603;31;33747;-68
2022/10/09 00:56:55;;;;;;;6.47;4.82;;;;;;;15.98;61.26;100023.91;4495984;31;33186;-67
2022/10/09 00:59:23;;;;;;;5.93;4.35;;;;;;;16.25;60.71;100022.34;4486104;31;33157;-67
2022/10/09 01:01:51;;;;;;;9.43;4.78;;;;;;;16.45;60.33;100020.44;4484885;31;33070;-67
2022/10/09 01:04:19;;;;;;;7.55;6.43;;;;;;;16.21;61.34;100016.37;4495434;31;34044;-68
2022/10/09 01:06:55;;;;;;;9.93;6.40;;;;;;;16.57;60.24;100019.28;4490582;31;33349;-67
2022/10/09 01:09:32;;;;;;;11.35;6.80;;;;;;;16.36;60.88;100011.34;4498219;31;34277;-67
2022/10/09 01:12:09;;;;;;;10.10;8.10;;;;;;;16.46;60.78;100014.03;4485550;31;33937;-68
2022/10/09 01:15:08;;;;;;;9.13;6.47;;;;;;;16.63;60.20;100018.69;4495852;31;35432;-67
2022/10/09 01:17:41;;;;;;;7.20;6.45;;;;;;;16.76;59.87;100019.25;4485762;31;35083;-67
2022/10/09 01:20:31;;;;;;;9.32;6.07;;;;;;;16.73;59.97;100010.56;4497532;31;33491;-68
2022/10/09 01:23:13;;;;;;;16.70;7.70;;;;;;;16.81;59.88;100023.34;4485163;31;34077;-66
2022/10/09 01:26:20;;;;;;;7.80;5.85;;;;;;;16.43;61.11;100025.12;4492926;31;34470;-66
2022/10/09 01:28:54;;;;;;;17.20;7.22;;;;;;;16.53;61.16;100026.84;4491897;31;33501;-66
2022/10/09 01:31:25;;;;;;;7.00;3.95;;;;;;;16.67;60.80;100027.37;4491252;31;34229;-67
2022/10/09 01:33:53;;;;;;;10.73;6.72;;;;;;;17.04;59.94;100018.41;4493649;31;32157;-67
2022/10/09 01:36:22;;;;;;;12.73;8.32;;;;;;;17.15;59.58;100023.66;4492458;31;34171;-66
2022/10/09 01:38:50;;;;;;;11.50;8.27;;;;;;;17.36;58.77;100023.37;4489700;31;33726;-67
2022/10/09 01:41:18;;;;;;;12.23;7.80;;;;;;;17.16;59.20;100034.28;4493570;31;33483;-68
2022/10/09 01:43:46;;;;;;;7.57;6.25;;;;;;;17.17;59.26;100033.31;4497585;31;33540;-67
2022/10/09 01:46:19;;;;;;;11.82;7.62;;;;;;;16.88;59.97;100027.16;4495233;31;34926;-68
2022/10/09 01:49:12;;;;;;;10.85;7.80;;;;;;;16.92;60.09;100031.28;4498841;31;33799;-67
2022/10/09 01:51:56;;;;;;;12.52;8.82;;;;;;;17.11;59.40;100019.50;4491966;31;33050;-67
2022/10/09 01:54:34;;;;;;;10.68;7.82;;;;;;;17.17;59.33;100024.31;4485928;31;34053;-67
2022/10/09 01:57:04;;;;;;;16.92;8.57;;;;;;;16.72;60.53;100022.34;4498345;31;33545;-68
2022/10/09 01:59:35;;;;;;;15.27;8.23;;;;;;;17.06;59.70;100029.94;4498446;31;33786;-68
2022/10/09 02:02:04;;;;;;;10.00;7.80;;;;;;;16.85;60.37;100028.31;4492196;31;34541;-66
2022/10/09 02:04:33;;;;;;;13.77;9.32;;;;;;;16.79;60.84;100037.03;4498594;31;33837;-68
2022/10/09 02:07:00;;;;;;;10.68;7.20;;;;;;;16.84;60.75;100029.31;4492328;31;33986;-66
2022/10/09 02:09:29;;;;;;;12.18;7.37;;;;;;;16.85;60.76;100027.47;4497760;31;34050;-67
2022/10/09 02:11:59;;;;;;;8.80;6.40;;;;;;;16.92;60.77;100031.28;4493132;31;33534;-67
2022/10/09 02:14:27;;;;;;;11.15;7.95;;;;;;;17.03;60.40;100033.78;4490868;31;33087;-66
2022/10/09 02:17:04;;;;;;;14.80;8.90;;;;;;;17.06;60.59;100036.19;4486562;31;33911;-66
2022/10/09 02:19:51;;;;;;;13.18;8.77;;;;;;;16.89;61.42;100043.25;4484253;31;32245;-66
2022/10/09 02:22:25;;;;;;;12.80;9.68;;;;;;;16.49;63.15;100057.81;4488753;31;33540;-66
2022/10/09 02:24:54;;;;;;;14.23;9.50;;;;;;;16.65;62.92;100050.97;4485834;31;32557;-66
2022/10/09 02:27:22;;;;;;;9.98;6.75;;;;;;;16.69;63.04;100055.94;4488032;31;34011;-66
2022/10/09 02:29:51;;;;;;;16.45;9.13;;;;;;;17.07;61.89;100056.81;4494087;31;32727;-65
2022/10/09 02:32:19;;;;;;;14.10;7.03;;;;;;;16.70;63.04;100056.81;4493538;31;33146;-65
2022/10/09 02:34:46;;;;;;;14.87;9.70;;;;;;;16.17;65.15;100054.59;4488269;31;33705;-66
2022/10/09 02:37:14;;;;;;;14.93;11.40;;;;;;;16.76;63.15;100059.81;4495566;31;34874;-67
2022/10/09 02:39:42;;;;;;;20.73;11.95;;;;;;;16.82;63.03;100065.59;4490262;31;33889;-66
2022/10/09 02:42:10;;;;;;;12.85;9.75;;;;;;;16.92;62.54;100069.16;4498759;31;33599;-66
2022/10/09 02:44:37;;;;;;;15.60;9.32;;;;;;;16.71;63.64;100067.44;4496995;31;33742;-63
2022/10/09 02:47:05;;;;;;;11.45;8.52;;;;;;;16.64;63.92;100060.94;4498277;31;32620;-63
2022/10/09 02:49:32;;;;;;;17.62;11.60;;;;;;;17.10;62.56;100072.75;4498723;31;34729;-63
2022/10/09 02:52:00;;;;;;;14.68;10.60;;;;;;;16.59;64.22;100074.00;4490262;31;31957;-63
2022/10/09 02:54:28;;;;;;;13.15;9.20;;;;;;;16.81;63.85;100075.56;4487763;31;33884;-63
2022/10/09 02:56:55;;;;;;;10.10;8.52;;;;;;;16.71;64.18;100080.97;4500102;31;34368;-63
2022/10/09 02:59:22;;;;;;;8.23;6.57;;;;;;;16.44;65.37;100079.03;4497922;31;33794;-64
2022/10/09 03:01:50;;;;;;;24.83;11.55;;;;;;;16.68;64.67;100088.50;4493352;31;33475;-64
2022/10/09 03:04:18;;;;;;;16.73;10.00;;;;;;;16.57;64.94;100094.94;4495267;31;34186;-64
2022/10/09 03:06:45;;;;;;;17.37;11.38;;;;;;;16.42;65.54;100089.13;4495862;31;34966;-63
2022/10/09 03:09:13;;;;;;;15.35;11.18;;;;;;;16.60;65.42;100094.66;4491039;31;32333;-64
2022/10/09 03:11:40;;;;;;;14.50;10.35;;;;;;;16.50;65.73;100097.38;4495997;31;32442;-64
2022/10/09 03:14:08;;;;;;;14.45;11.65;;;;;;;16.82;64.74;100087.22;4499510;31;35046;-64
2022/10/09 03:16:36;;;;;;;14.52;11.07;;;;;;;16.35;66.80;100092.56;4495028;31;34001;-63
2022/10/09 03:19:03;;;;;;;12.10;9.25;;;;;;;16.25;67.52;100093.41;4493477;31;34818;-64
2022/10/09 03:21:31;;;;;;;19.08;11.75;;;;;;;16.73;65.90;100088.94;4484177;31;32079;-64
2022/10/09 03:23:58;;;;;;;20.27;13.43;;;;;;;16.77;65.91;100096.62;4486659;31;34822;-64
2022/10/09 03:26:26;;;;;;;14.05;10.20;;;;;;;16.56;66.80;100097.78;4493521;31;33700;-66
2022/10/09 03:28:54;;;;;;;19.58;11.25;;;;;;;16.49;67.03;100101.06;4493300;31;33911;-66
2022/10/09 03:31:24;;;;;;;18.73;12.73;;;;;;;16.68;66.49;100099.31;4486402;31;33530;-66
2022/10/09 03:34:12;;;;;;;16.50;11.88;;;;;;;16.58;66.81;100088.53;4491227;31;32658;-65
2022/10/09 03:36:41;;;;;;;13.65;9.57;;;;;;;16.70;66.50;100090.09;4483271;31;34018;-65
2022/10/09 03:39:08;;;;;;;18.08;10.85;;;;;;;16.79;66.18;100101.91;4487407;31;33578;-63
2022/10/09 03:41:36;;;;;;;12.10;9.77;;;;;;;16.83;66.11;100094.34;4482851;32;34626;-64
2022/10/09 03:44:04;;;;;;;19.60;9.70;;;;;;;16.48;67.03;100088.53;4488753;31;33534;-63
2022/10/09 03:46:31;;;;;;;14.15;9.98;;;;;;;16.97;65.72;100097.41;4497028;31;34875;-65
2022/10/09 03:48:59;;;;;;;17.05;11.48;;;;;;;17.07;65.20;100104.66;4498331;31;33881;-64
2022/10/09 03:51:27;;;;;;;18.33;11.38;;;;;;;16.47;67.60;100113.03;4492369;31;33354;-65
2022/10/09 03:53:54;;;;;;;19.25;14.18;;;;;;;16.21;68.51;100110.91;4491807;31;33778;-64
2022/10/09 03:56:21;;;;;;;19.92;13.80;;;;;;;16.22;68.74;100119.84;4489224;31;33763;-64
2022/10/09 03:58:49;;;;;;;17.35;10.43;;;;;;;16.39;68.15;100132.63;4487293;31;33703;-64
2022/10/09 04:01:17;;;;;;;20.05;12.02;;;;;;;16.02;69.72;100125.25;4491492;31;32067;-64
2022/10/09 04:03:44;;;;;;;16.35;11.12;;;;;;;16.23;69.54;100132.34;4489966;31;34656;-64
2022/10/09 04:06:12;;;;;;;17.08;12.98;;;;;;;16.13;69.47;100131.50;4484865;31;34360;-64
2022/10/09 04:08:39;;;;;;;16.62;12.05;;;;;;;16.62;67.98;100129.63;4483544;31;32982;-64
2022/10/09 04:11:07;;;;;;;21.85;12.05;;;;;;;16.66;67.85;100137.31;4488736;31;33254;-64
2022/10/09 04:13:35;;;;;;;19.73;11.95;;;;;;;16.70;67.43;100127.06;4494601;31;33999;-64
2022/10/09 04:16:02;;;;;;;13.98;10.75;;;;;;;17.12;65.91;100127.56;4489070;31;34339;-64
2022/10/09 04:18:30;;;;;;;18.85;10.80;;;;;;;17.36;65.07;100121.63;4494146;31;32794;-64
2022/10/09 04:20:57;;;;;;;14.52;10.13;;;;;;;17.43;64.65;100111.03;4495947;31;33749;-64
2022/10/09 04:23:26;;;;;;;15.32;9.93;;;;;;;17.39;64.54;100142.13;4496888;31;34629;-64
2022/10/09 04:25:54;;;;;;;20.62;13.35;;;;;;;17.44;64.52;100110.06;4494421;31;33867;-63
2022/10/09 04:28:22;;;;;;;20.20;13.18;;;;;;;17.00;66.22;100115.22;4496427;31;33625;-63
2022/10/09 04:30:50;;;;;;;19.20;13.98;;;;;;;17.45;64.61;100120.72;4486676;31;33415;-64
2022/10/09 04:33:18;;;;;;;20.67;12.05;;;;;;;17.00;66.16;100131.44;4495213;31;33121;-66
2022/10/09 04:35:49;;;;;;;31.17;13.27;;;;;;;16.94;66.18;100143.69;4482464;31;35026;-65
2022/10/09 04:38:17;;;;;;;19.80;10.98;;;;;;;16.69;67.52;100152.37;4494673;31;32600;-65
2022/10/09 04:41:00;;;;;;;27.05;13.23;;;;;;;17.04;66.16;100143.66;4493584;31;34726;-66
2022/10/09 04:43:28;;;;;;;20.42;10.38;;;;;;;16.94;66.65;100146.38;4490837;31;204302;-66
2022/10/09 04:45:56;;;;;;;17.37;9.80;;;;;;;17.03;66.45;100160.03;4494335;31;34118;-66
2022/10/09 04:48:24;;;;;;;20.75;13.23;;;;;;;16.83;67.20;100162.78;4486308;31;34068;-66
2022/10/09 04:50:52;;;;;;;17.45;12.73;;;;;;;16.37;68.93;100183.25;4497026;31;32924;-62
2022/10/09 04:53:19;;;;;;;18.62;11.52;;;;;;;16.65;68.41;100191.50;4495411;31;35116;-63
2022/10/09 04:55:47;;;;;;;23.23;13.93;;;;;;;16.58;68.49;100182.25;4494262;31;35318;-65
2022/10/09 04:58:14;;;;;;;15.65;11.52;;;;;;;16.28;70.07;100190.34;4496029;31;33322;-67
2022/10/09 05:00:44;;;;;;;22.55;11.93;;;;;;;16.94;67.59;100189.66;4491382;31;33596;-68
2022/10/09 05:03:12;;;;;;;17.62;12.18;;;;;;;16.93;67.49;100189.81;4495560;31;32416;-67
2022/10/09 05:05:39;;;;;;;24.33;13.10;;;;;;;16.95;67.18;100179.69;4496766;31;35277;-68
2022/10/09 05:08:07;;;;;;;21.65;15.50;;;;;;;16.40;69.38;100182.09;4493262;31;34092;-67
2022/10/09 05:10:34;;;;;;;26.08;15.40;;;;;;;16.62;68.47;100181.81;4495220;31;31860;-67
2022/10/09 05:13:02;;;;;;;14.30;11.12;;;;;;;16.26;70.41;100180.69;4494123;31;34231;-66
2022/10/09 05:15:30;;;;;;;15.50;10.43;;;;;;;16.75;68.43;100195.06;4483747;31;34017;-69
2022/10/09 05:17:57;;;;;;;15.02;9.68;;;;;;;16.56;68.93;100195.06;4485956;31;33677;-66
2022/10/09 05:20:25;;;;;;;17.05;9.57;;;;;;;17.10;67.16;100182.78;4493655;31;32632;-65
2022/10/09 05:22:52;;;;;;;18.42;11.30;;;;;;;17.50;65.54;100197.91;4494733;31;33709;-69
2022/10/09 05:25:20;;;;;;;21.12;16.77;;;;;;;17.11;66.70;100198.88;4496012;31;35190;-68
2022/10/09 05:27:47;;;;;;;19.33;9.90;;;;;;;17.22;65.88;100192.44;4487862;31;35252;-68
2022/10/09 05:30:15;;;;;;;17.45;11.15;;;;;;;16.90;67.02;100201.75;4496505;31;32984;-69
2022/10/09 05:32:42;;;;;;;15.63;9.43;;;;;;;17.27;65.73;100195.56;4485660;31;33506;-68
2022/10/09 05:35:10;;;;;;;12.32;9.77;;;;;;;17.08;66.49;100193.78;4491574;31;33905;-68
2022/10/09 05:37:38;;;;;;;17.33;10.80;;;;;;;16.87;67.17;100190.38;4492076;31;34942;-65
2022/10/09 05:40:06;;;;;;;16.08;12.80;;;;;;;17.11;66.45;100188.06;4486341;31;33156;-65
2022/10/09 05:42:33;;;;;;;17.35;11.52;;;;;;;17.17;66.35;100205.53;4486301;31;33686;-62
2022/10/09 05:45:01;;;;;;;19.45;10.70;;;;;;;16.89;67.18;100205.47;4496633;31;34146;-62
2022/10/09 05:47:29;;;;;;;14.45;10.57;;;;;;;17.05;66.68;100198.62;4495447;31;33784;-62
2022/10/09 05:49:56;;;;;;;19.37;10.90;;;;;;;17.26;65.97;100203.81;4493369;31;32604;-62
2022/10/09 05:52:24;;;;;;;18.42;11.63;;;;;;;17.20;66.22;100200.69;4497267;31;33647;-62
2022/10/09 05:54:52;;;;;;;23.33;12.48;;;;;;;17.39;65.45;100205.19;4496184;31;34086;-63
2022/10/09 05:57:19;;;;;;;19.80;13.23;;;;;;;16.93;66.31;100206.87;4489027;31;34656;-63
2022/10/09 05:59:47;;;;;;;21.48;14.87;;;;;;;17.18;65.89;100213.53;4490195;31;33117;-63
2022/10/09 06:02:14;;;;;;;11.43;8.73;;;;;;;17.55;64.57;100209.97;4487376;31;33865;-63
2022/10/09 06:04:42;;;;;;;12.95;8.75;;;;;;;17.64;63.91;100217.22;4481811;31;32855;-64
2022/10/09 06:07:10;;;;;;;20.40;11.98;;;;;;;17.59;64.01;100218.66;4487621;31;34806;-63
2022/10/09 06:09:37;;;;;;;19.62;13.45;;;;;;;17.82;63.21;100211.06;4492535;31;34726;-63
2022/10/09 06:12:05;;;;;;;18.77;11.52;;;;;;;17.59;63.69;100214.13;4489754;31;33951;-64
2022/10/09 06:14:32;;;;;;;23.38;12.50;;;;;;;17.54;63.66;100218.25;4491562;31;32875;-62
2022/10/09 06:17:00;;;;;;;14.93;9.65;;;;;;;17.21;65.05;100228.62;4497201;31;34170;-62
2022/10/09 06:19:28;;;;;;;15.45;10.52;;;;;;;17.80;63.21;100234.72;4492617;31;32926;-63
2022/10/09 06:21:55;;;;;;;16.12;11.93;;;;;;;17.65;63.62;100237.84;4485548;31;33607;-64
2022/10/09 06:24:24;;;;;;;16.77;10.10;;;;;;;17.22;64.90;100233.87;4496367;31;34192;-63
2022/10/09 06:26:56;;;;;;;14.63;10.15;;;;;;;17.60;63.65;100252.88;4485324;31;33516;-63
2022/10/09 06:29:24;;;;;;;13.55;9.60;;;;;;;17.68;63.55;100236.72;4494862;31;33785;-64
2022/10/09 06:31:52;;;;;;;15.45;8.95;;;;;;;17.29;64.72;100231.44;4493014;31;33790;-64
2022/10/09 06:34:20;;;;;;;17.58;11.30;;;;;;;17.41;64.45;100246.50;4488442;31;33519;-63
2022/10/09 06:36:47;;;;;;;15.27;10.55;;;;;;;16.74;67.46;100258.22;4489494;31;33564;-64
2022/10/09 06:39:15;;;;;;;16.08;9.35;;;;;;;17.24;65.63;100247.25;4492076;31;34529;-63
2022/10/09 06:41:43;;;;;;;15.15;10.75;;;;;;;17.11;66.21;100246.69;4489066;31;33797;-63
2022/10/09 06:44:11;;;;;;;15.07;10.38;;;;;;;17.06;66.97;100257.94;4491931;31;33863;-63
2022/10/09 06:46:47;;;;;;;18.52;11.30;;;;;;;17.19;66.03;100247.69;4486065;31;32769;-63
2022/10/09 06:49:14;;;;;;;18.15;11.35;;;;;;;17.41;65.42;100253.78;4488611;31;33625;-63
2022/10/09 06:51:42;;;;;;;12.25;8.65;;;;;;;17.23;65.41;100257.19;4493621;31;34599;-63
2022/10/09 06:54:12;;;;;;;14.15;9.43;;;;;;;17.52;65.22;100252.72;4493850;31;34906;-63
2022/10/09 06:56:39;;;;;;;19.50;8.70;;;;;;;17.62;64.46;100267.09;4489490;31;33513;-63
2022/10/09 06:59:07;;;;;;;15.15;11.70;;;;;;;17.19;65.79;100263.06;4491599;31;33416;-63
2022/10/09 07:01:35;;;;;;;16.40;10.50;;;;;;;17.68;64.01;100264.63;4490497;31;34667;-64
2022/10/09 07:04:05;;;;;;;15.45;9.50;;;;;;;17.74;63.94;100265.06;4493717;31;33637;-63
2022/10/09 07:06:36;;;;;;;15.18;8.90;;;;;;;17.59;64.42;100265.56;4494934;31;34253;-63
2022/10/09 07:09:07;;;;;;;14.27;10.23;;;;;;;17.27;64.63;100271.31;4491550;31;32383;-63
2022/10/09 07:11:37;;;;;;;15.25;11.88;;;;;;;17.66;63.58;100272.06;4490326;31;34544;-63
2022/10/09 07:14:07;;;;;;;14.18;9.93;;;;;;;17.36;63.78;100269.56;4493444;31;32686;-63
2022/10/09 07:16:37;;;;;;;17.55;9.73;;;;;;;17.89;61.71;100272.59;4496294;31;34730;-63
2022/10/09 07:19:07;;;;;;;11.52;7.90;;;;;;;17.96;61.61;100272.00;4495256;31;33707;-64
2022/10/09 07:21:34;;;;;;;17.42;11.25;;;;;;;18.19;60.86;100281.41;4495785;31;35157;-63
2022/10/09 07:24:03;;;;;;;11.18;7.30;;;;;;;17.90;62.02;100293.22;4491655;31;35091;-64
2022/10/09 07:26:33;;;;;;;17.23;9.32;;;;;;;17.82;62.78;100287.72;4492266;31;33216;-64
2022/10/09 07:29:02;;;;;;;14.32;9.50;;;;;;;17.97;62.51;100296.19;4488859;31;32000;-63
2022/10/09 07:31:30;;;;;;;14.23;9.77;;;;;;;17.83;62.30;100277.75;4489600;31;33289;-63
2022/10/09 07:33:58;;;;;;;10.50;7.85;;;;;;;17.82;62.32;100290.44;4495905;31;33865;-63
2022/10/09 07:36:25;;;;;;;13.05;8.57;;;;;;;18.51;60.58;100283.66;4480979;31;35025;-63
2022/10/09 07:38:55;;;;;;;14.27;9.98;;;;;;;18.49;60.39;100285.69;4485229;31;33132;-64
2022/10/09 07:41:25;;;;;;;10.98;7.37;;;;;;;18.56;59.81;100283.22;4491005;31;35169;-63
2022/10/09 07:43:53;;;;;;;8.88;6.40;;;;;;;18.67;59.30;100288.41;4495628;31;33840;-63
2022/10/09 07:46:22;;;;;;;12.27;7.03;;;;;;;18.52;59.14;100293.50;4495344;31;34738;-63
2022/10/09 07:48:50;;;;;;;16.60;8.15;;;;;;;18.26;59.56;100300.63;4486827;31;33843;-63
2022/10/09 07:51:26;;;;;;;7.53;5.05;;;;;;;18.24;60.12;100295.38;4492256;31;32596;-64
2022/10/09 07:53:55;;;;;;;10.40;7.10;;;;;;;18.22;59.83;100301.94;4486553;31;35433;-63
2022/10/09 07:56:28;;;;;;;14.05;9.73;;;;;;;18.52;59.03;100298.06;4493699;31;35172;-64
2022/10/09 07:59:01;;;;;;;13.15;8.98;;;;;;;18.26;59.72;100292.50;4497797;31;33302;-63
2022/10/09 08:01:30;;;;;;;9.55;7.22;;;;;;;18.89;57.92;100291.69;4492737;31;33962;-64
2022/10/09 08:03:59;;;;;;;14.52;6.90;;;;;;;19.02;57.52;100293.00;4497051;31;33997;-63
2022/10/09 08:06:27;;;;;;;11.52;8.18;;;;;;;18.25;59.70;100293.50;4497187;31;34035;-63
2022/10/09 08:08:56;;;;;;;12.45;9.63;;;;;;;18.67;59.19;100292.97;4493985;31;33387;-63
2022/10/09 08:11:25;;;;;;;10.75;8.20;;;;;;;18.48;60.41;100291.25;4494584;31;33516;-64
2022/10/09 08:13:53;;;;;;;14.32;8.35;;;;;;;18.77;59.36;100296.50;4491088;31;32856;-63
2022/10/09 08:16:21;;;;;;;12.85;8.95;;;;;;;18.50;60.01;100290.09;4487390;31;34234;-63
2022/10/09 08:18:54;;;;;;;12.35;7.60;;;;;;;18.64;59.02;100294.13;4481876;31;34436;-64
2022/10/09 08:21:22;;;;;;;14.23;7.85;;;;;;;18.76;59.24;100287.50;4492046;31;33671;-64
2022/10/09 08:23:54;;;;;;;14.57;10.55;;;;;;;18.77;59.43;100281.06;4494878;31;34875;-64
2022/10/09 08:26:23;;;;;;;10.50;7.45;;;;;;;18.52;59.58;100289.91;4485037;31;33799;-63
2022/10/09 08:28:51;;;;;;;12.00;9.38;;;;;;;18.63;59.43;100285.13;4484556;31;33145;-63
2022/10/09 08:31:20;;;;;;;9.82;7.03;;;;;;;18.35;59.88;100291.59;4492234;31;33702;-63
2022/10/09 08:33:51;;;;;;;12.65;8.70;;;;;;;18.32;60.08;100279.19;4493180;31;33220;-64
2022/10/09 08:36:19;;;;;;;10.60;7.75;;;;;;;18.37;60.62;100286.88;4497168;31;33923;-63
2022/10/09 08:38:47;;;;;;;14.18;8.90;;;;;;;18.48;60.68;100289.38;4498662;31;34449;-64
2022/10/09 08:41:37;;;;;;;11.02;5.68;;;;;;;18.36;60.73;100294.16;4489603;31;33711;-63
2022/10/09 08:44:15;;;;;;;14.93;8.40;;;;;;;18.93;59.28;100306.66;4489427;31;32549;-64
2022/10/09 08:46:49;;;;;;;10.90;7.12;;;;;;;19.04;57.39;100295.56;4490574;31;34350;-63
2022/10/09 08:49:28;;;;;;;37.13;5.93;;;;;;;18.58;58.09;100295.59;4494627;31;33537;-63
2022/10/09 08:52:12;;;;;;;7.87;5.32;;;;;;;18.78;57.86;100296.34;4490083;31;33770;-64
2022/10/09 08:54:40;;;;;;;6.50;4.65;;;;;;;18.53;56.53;100306.03;4491806;31;33918;-63
2022/10/09 08:57:15;;;;;;;8.32;5.62;;;;;;;19.30;54.96;100311.91;4484973;31;33441;-63
2022/10/09 08:59:43;;;;;;;10.93;4.90;;;;;;;19.65;54.83;100313.72;4490415;31;33844;-64
2022/10/09 09:02:17;;;;;;;10.23;6.85;;;;;;;19.58;53.47;100311.75;4489904;31;33917;-64
2022/10/09 09:05:26;;;;;;;7.68;3.78;;;;;;;19.77;52.94;100317.88;4491732;31;33386;-63
2022/10/09 09:08:03;;;;;;;12.10;5.82;;;;;;;19.05;53.90;100327.12;4493299;31;33542;-64
2022/10/09 09:10:42;;;;;;;12.43;6.68;;;;;;;19.41;52.65;100316.22;4493586;31;33752;-63
2022/10/09 09:13:28;;;;;;;7.80;5.25;;;;;;;19.33;52.16;100317.03;4483951;31;33701;-64
2022/10/09 09:16:22;;;;;;;7.07;4.90;;;;;;;19.46;52.35;100324.75;4486432;31;33310;-63
2022/10/09 09:19:08;;;;;;;7.95;5.12;;;;;;;19.02;53.29;100322.84;4494565;31;34748;-63
2022/10/09 09:21:40;;;;;;;7.15;4.97;;;;;;;19.19;52.74;100326.56;4490505;31;34571;-63
2022/10/09 09:24:17;;;;;;;13.05;6.75;;;;;;;19.22;52.95;100333.53;4489545;31;34927;-63
2022/10/09 09:26:53;;;;;;;10.05;5.72;;;;;;;19.37;52.65;100328.41;4492103;31;33869;-64
2022/10/09 09:29:22;;;;;;;7.68;5.47;;;;;;;19.60;51.80;100328.75;4492711;31;32197;-63
2022/10/09 09:31:57;;;;;;;7.10;4.68;;;;;;;20.02;50.94;100332.44;4484300;31;33293;-64
2022/10/09 09:34:36;;;;;;;8.77;5.57;;;;;;;19.65;52.23;100330.03;4485831;31;33666;-64
2022/10/09 09:37:04;;;;;;;7.10;3.45;;;;;;;20.05;51.49;100331.28;4486244;31;32563;-63
2022/10/09 09:39:33;;;;;;;8.27;4.50;;;;;;;19.86;50.55;100334.22;4495080;31;32557;-64
2022/10/09 09:42:21;;;;;;;9.27;5.45;;;;;;;20.43;49.32;100326.34;4499233;31;33611;-64
2022/10/09 09:45:03;;;;;;;9.50;5.55;;;;;;;20.09;49.71;100334.50;4498855;31;33905;-64
2022/10/09 09:47:50;;;;;;;13.85;7.70;;;;;;;19.81;51.27;100336.53;4493098;31;33791;-63
2022/10/09 09:50:47;;;;;;;11.32;5.37;;;;;;;20.15;50.47;100332.00;4497331;31;33926;-64
2022/10/09 09:53:40;;;;;;;11.18;5.75;;;;;;;20.12;50.61;100337.75;4483202;31;34643;-63
2022/10/09 09:56:08;;;;;;;6.70;4.20;;;;;;;20.06;50.82;100340.25;4491171;31;34770;-64
2022/10/09 09:58:47;;;;;;;6.53;3.87;;;;;;;19.85;49.38;100341.53;4485230;31;33037;-64
2022/10/09 10:01:26;;;;;;;8.55;5.10;;;;;;;20.01;48.90;100338.03;4487893;31;34706;-64
2022/10/09 10:04:00;;;;;;;9.68;7.00;;;;;;;19.72;50.83;100344.66;4487260;31;33149;-63
2022/10/09 10:06:33;;;;;;;9.73;6.70;;;;;;;20.04;50.54;100336.88;4493054;31;35149;-63
2022/10/09 10:09:12;;;;;;;8.57;4.72;;;;;;;20.22;50.71;100343.06;4495859;31;33916;-63
2022/10/09 10:11:57;;;;;;;6.93;4.32;;;;;;;21.00;48.67;100342.84;4492909;31;32748;-63
2022/10/09 10:14:25;;;;;;;8.15;5.15;;;;;;;20.80;49.20;100339.59;4484735;31;34794;-63
2022/10/09 10:16:54;;;;;;;8.50;4.82;;;;;;;20.54;48.90;100350.53;4474118;31;32374;-64
2022/10/09 10:19:28;;;;;;;8.05;4.50;;;;;;;20.95;47.63;100342.50;4500200;31;34097;-64
2022/10/09 10:22:01;;;;;;;7.75;4.95;;;;;;;20.60;48.78;100344.44;4494351;31;33922;-64
2022/10/09 10:24:34;;;;;;;7.12;4.00;;;;;;;20.65;48.45;100343.97;4500549;31;33427;-63
2022/10/09 10:27:16;;;;;;;14.10;6.97;;;;;;;20.59;48.58;100344.63;4491601;31;34816;-64
2022/10/09 10:29:45;;;;;;;7.03;3.65;;;;;;;21.10;47.08;100342.69;4495891;31;33976;-64
2022/10/09 10:32:17;;;;;;;5.12;3.35;;;;;;;20.68;47.93;100343.62;4470671;32;33594;-63
2022/10/09 10:35:10;;;;;;;5.87;3.58;;;;;;;20.57;47.09;100349.37;4483811;31;34535;-64
2022/10/09 10:37:41;;;;;;;11.07;5.03;;;;;;;20.90;46.77;100342.16;4482812;31;33819;-64
2022/10/09 10:40:31;;;;;;;8.95;4.12;;;;;;;20.94;45.79;100344.38;4490953;31;34934;-64
2022/10/09 10:43:08;;;;;;;6.37;3.53;;;;;;;20.46;46.95;100356.78;4493804;31;32690;-64
2022/10/09 10:45:42;;;;;;;5.15;3.00;;;;;;;20.91;45.54;100352.87;4497530;31;31874;-64
2022/10/09 10:48:23;;;;;;;4.10;2.83;;;;;;;20.38;46.68;100353.16;4489427;31;33584;-63
2022/10/09 10:51:29;;;;;;;4.22;3.20;;;;;;;20.35;46.87;100353.50;4485800;31;34971;-64
2022/10/09 10:54:06;;;;;;;5.55;2.83;;;;;;;20.46;47.57;100348.63;4465543;31;33892;-63
2022/10/09 10:56:53;;;;;;;4.85;3.53;;;;;;;20.62;46.98;100349.72;4499447;31;33074;-64
2022/10/09 10:59:38;;;;;;;6.10;3.15;;;;;;;20.86;45.55;100340.78;4489029;31;35003;-64
2022/10/09 11:02:19;;;;;;;;;;;;;;;20.79;45.92;100337.88;4492173;31;33995;-64
2022/10/09 11:04:59;;;;;;;5.37;2.87;;;;;;;20.52;46.19;100339.00;4497292;31;33045;-63
2022/10/09 11:07:28;;;;;;;7.60;3.80;;;;;;;20.53;46.53;100335.25;4494049;31;33420;-64
2022/10/09 11:10:19;;;;;;;5.57;3.08;;;;;;;20.42;47.09;100332.81;4491769;31;34772;-63
2022/10/09 11:12:58;;;;;;;5.47;2.90;;;;;;;20.37;45.81;100327.84;4483188;31;33697;-64
2022/10/09 11:15:36;;;;;;;5.50;2.65;;;;;;;21.07;44.53;100329.44;4491735;31;33768;-64
2022/10/09 11:18:59;;;;;;;6.22;3.28;;;;;;;21.06;44.53;100325.88;4496230;31;33342;-63
2022/10/09 11:21:36;;;;;;;5.03;3.40;;;;;;;21.14;44.32;100330.44;4470453;31;33832;-64
2022/10/09 11:24:29;;;;;;;5.43;3.53;;;;;;;21.71;43.93;100335.91;4494201;31;33717;-64
2022/10/09 11:27:12;;;;;;;6.40;4.78;;;;;;;20.44;46.31;100330.75;4494950;31;32799;-64
2022/10/09 11:29:57;;;;;;;6.78;4.68;;;;;;;20.49;46.04;100331.13;4495755;31;35353;-64
2022/10/09 11:32:29;;;;;;;11.30;5.13;;;;;;;20.92;44.89;100323.78;4483509;31;32335;-64
2022/10/09 11:35:03;;;;;;;3.42;2.70;;;;;;;21.42;43.53;100324.72;4486587;31;34072;-63
2022/10/09 11:37:34;;;;;;;8.45;4.40;;;;;;;21.76;42.93;100324.50;4490102;31;33292;-64
2022/10/09 11:40:14;;;;;;;7.37;3.95;;;;;;;21.88;42.98;100320.38;4490109;31;31955;-64